sensor_id;sensor_type;location;lat;lon;timestamp;P1;P2;P0
71858;PMS5003;59713;50.866;4.324;2023-05-10T00:00:26;7;7;
71858;PMS5003;59713;50.866;4.324;2023-05-10T00:01:26;7;7;
71858;PMS5003;59713;50.866;4.324;2023-05-10T00:02:26;11;7;
71858;PMS5003;59713;50.866;4.324;2023-05-10T00:03:26;11;7;
71858;PMS5003;59713;50.866;4.324;2023-05-10T00:04:26;11;7;
71858;PMS5003;59713;50.866;4.324;2023-05-10T00:05:26;11;8;
71858;PMS5003;59713;50.866;4.324;2023-05-10T00:05:26;11;8;
71858;PMS5003;59713;50.866;4.324;2023-05-10T00:06:26;11;8;
71858;PMS5003;59713;50.866;4.324;2023-05-10T00:07:26;11;8;
71858;PMS5003;59713;50.866;4.324;2023-05-10T00:08:26;6;6;
71858;PMS5003;59713;50.866;4.324;2023-05-10T00:09:26;6;6;
71858;PMS5003;59713;50.866;4.324;2023-05-10T00:10:26;6;6;
71858;PMS5003;59713;50.866;4.324;2023-05-10T00:11:26;9;9;
71858;PMS5003;59713;50.866;4.324;2023-05-10T00:12:26;9;9;
71858;PMS5003;59713;50.866;4.324;2023-05-10T00:13:26;9;9;
71858;PMS5003;59713;50.866;4.324;2023-05-10T00:14:26;7;7;
71858;PMS5003;59713;50.866;4.324;2023-05-10T00:14:26;7;7;
71858;PMS5003;59713;50.866;4.324;2023-05-10T00:15:26;7;7;
71858;PMS5003;59713;50.866;4.324;2023-05-10T00:16:26;7;7;
71858;PMS5003;59713;50.866;4.324;2023-05-10T00:17:26;10;9;
71858;PMS5003;59713;50.866;4.324;2023-05-10T00:18:26;10;9;
71858;PMS5003;59713;50.866;4.324;2023-05-10T00:19:26;10;9;
71858;PMS5003;59713;50.866;4.324;2023-05-10T00:20:26;7;7;
71858;PMS5003;59713;50.866;4.324;2023-05-10T00:21:26;7;7;
71858;PMS5003;59713;50.866;4.324;2023-05-10T00:22:26;7;7;
71858;PMS5003;59713;50.866;4.324;2023-05-10T00:23:26;10;7;
71858;PMS5003;59713;50.866;4.324;2023-05-10T00:23:26;10;7;
71858;PMS5003;59713;50.866;4.324;2023-05-10T00:24:26;10;7;
71858;PMS5003;59713;50.866;4.324;2023-05-10T00:25:26;10;7;
71858;PMS5003;59713;50.866;4.324;2023-05-10T00:26:26;11;9;
71858;PMS5003;59713;50.866;4.324;2023-05-10T00:27:26;11;9;
71858;PMS5003;59713;50.866;4.324;2023-05-10T00:28:27;11;9;
71858;PMS5003;59713;50.866;4.324;2023-05-10T00:29:26;6;6;
71858;PMS5003;59713;50.866;4.324;2023-05-10T00:30:26;6;6;
71858;PMS5003;59713;50.866;4.324;2023-05-10T00:31:26;6;6;
71858;PMS5003;59713;50.866;4.324;2023-05-10T00:32:26;11;8;
71858;PMS5003;59713;50.866;4.324;2023-05-10T00:32:26;11;8;
71858;PMS5003;59713;50.866;4.324;2023-05-10T00:33:26;11;8;
71858;PMS5003;59713;50.866;4.324;2023-05-10T00:34:26;11;8;
71858;PMS5003;59713;50.866;4.324;2023-05-10T00:35:26;10;9;
71858;PMS5003;59713;50.866;4.324;2023-05-10T00:36:26;10;9;
71858;PMS5003;59713;50.866;4.324;2023-05-10T00:37:26;10;9;
71858;PMS5003;59713;50.866;4.324;2023-05-10T00:38:26;11;8;
71858;PMS5003;59713;50.866;4.324;2023-05-10T00:39:26;11;8;
71858;PMS5003;59713;50.866;4.324;2023-05-10T00:40:26;11;8;
71858;PMS5003;59713;50.866;4.324;2023-05-10T00:41:26;9;9;
71858;PMS5003;59713;50.866;4.324;2023-05-10T00:41:26;9;9;
71858;PMS5003;59713;50.866;4.324;2023-05-10T00:42:26;9;9;
71858;PMS5003;59713;50.866;4.324;2023-05-10T00:43:26;9;9;
71858;PMS5003;59713;50.866;4.324;2023-05-10T00:44:26;13;9;
71858;PMS5003;59713;50.866;4.324;2023-05-10T00:45:26;13;9;
71858;PMS5003;59713;50.866;4.324;2023-05-10T00:46:26;13;9;
71858;PMS5003;59713;50.866;4.324;2023-05-10T00:47:26;11;10;
71858;PMS5003;59713;50.866;4.324;2023-05-10T00:48:26;11;10;
71858;PMS5003;59713;50.866;4.324;2023-05-10T00:49:26;11;10;
71858;PMS5003;59713;50.866;4.324;2023-05-10T00:50:26;11;9;
71858;PMS5003;59713;50.866;4.324;2023-05-10T00:51:26;11;9;
71858;PMS5003;59713;50.866;4.324;2023-05-10T00:51:26;11;9;
71858;PMS5003;59713;50.866;4.324;2023-05-10T00:52:26;11;9;
71858;PMS5003;59713;50.866;4.324;2023-05-10T00:53:26;9;9;
71858;PMS5003;59713;50.866;4.324;2023-05-10T00:54:26;9;9;
71858;PMS5003;59713;50.866;4.324;2023-05-10T00:55:26;9;9;
71858;PMS5003;59713;50.866;4.324;2023-05-10T00:56:26;14;11;
71858;PMS5003;59713;50.866;4.324;2023-05-10T00:57:26;14;11;
71858;PMS5003;59713;50.866;4.324;2023-05-10T00:58:27;14;11;
71858;PMS5003;59713;50.866;4.324;2023-05-10T00:59:26;12;9;
71858;PMS5003;59713;50.866;4.324;2023-05-10T01:00:26;12;9;
71858;PMS5003;59713;50.866;4.324;2023-05-10T01:00:26;12;9;
71858;PMS5003;59713;50.866;4.324;2023-05-10T01:01:26;12;9;
71858;PMS5003;59713;50.866;4.324;2023-05-10T01:02:26;9;8;
71858;PMS5003;59713;50.866;4.324;2023-05-10T01:03:26;9;8;
71858;PMS5003;59713;50.866;4.324;2023-05-10T01:04:26;9;8;
71858;PMS5003;59713;50.866;4.324;2023-05-10T01:05:26;10;9;
71858;PMS5003;59713;50.866;4.324;2023-05-10T01:06:26;10;9;
71858;PMS5003;59713;50.866;4.324;2023-05-10T01:07:26;10;9;
71858;PMS5003;59713;50.866;4.324;2023-05-10T01:08:26;9;9;
71858;PMS5003;59713;50.866;4.324;2023-05-10T01:09:26;9;9;
71858;PMS5003;59713;50.866;4.324;2023-05-10T01:09:26;9;9;
71858;PMS5003;59713;50.866;4.324;2023-05-10T01:10:26;9;9;
71858;PMS5003;59713;50.866;4.324;2023-05-10T01:11:26;8;7;
71858;PMS5003;59713;50.866;4.324;2023-05-10T01:12:26;8;7;
71858;PMS5003;59713;50.866;4.324;2023-05-10T01:13:29;8;7;
71858;PMS5003;59713;50.866;4.324;2023-05-10T01:14:26;13;11;
71858;PMS5003;59713;50.866;4.324;2023-05-10T01:15:26;13;11;
71858;PMS5003;59713;50.866;4.324;2023-05-10T01:16:26;13;11;
71858;PMS5003;59713;50.866;4.324;2023-05-10T01:17:26;10;8;
71858;PMS5003;59713;50.866;4.324;2023-05-10T01:18:26;10;8;
71858;PMS5003;59713;50.866;4.324;2023-05-10T01:18:26;10;8;
71858;PMS5003;59713;50.866;4.324;2023-05-10T01:19:27;10;8;
71858;PMS5003;59713;50.866;4.324;2023-05-10T01:20:26;11;9;
71858;PMS5003;59713;50.866;4.324;2023-05-10T01:21:27;11;9;
71858;PMS5003;59713;50.866;4.324;2023-05-10T01:22:32;11;9;
71858;PMS5003;59713;50.866;4.324;2023-05-10T01:23:31;13;11;
71858;PMS5003;59713;50.866;4.324;2023-05-10T01:24:35;13;11;
71858;PMS5003;59713;50.866;4.324;2023-05-10T01:25:31;13;11;
71858;PMS5003;59713;50.866;4.324;2023-05-10T01:26:31;11;11;
71858;PMS5003;59713;50.866;4.324;2023-05-10T01:27:33;11;11;
71858;PMS5003;59713;50.866;4.324;2023-05-10T01:27:33;11;11;
71858;PMS5003;59713;50.866;4.324;2023-05-10T01:28:32;11;11;
71858;PMS5003;59713;50.866;4.324;2023-05-10T01:29:40;12;11;
71858;PMS5003;59713;50.866;4.324;2023-05-10T01:30:36;12;11;
71858;PMS5003;59713;50.866;4.324;2023-05-10T01:31:30;12;11;
71858;PMS5003;59713;50.866;4.324;2023-05-10T01:32:29;11;11;
71858;PMS5003;59713;50.866;4.324;2023-05-10T01:33:26;11;11;
71858;PMS5003;59713;50.866;4.324;2023-05-10T01:34:27;11;11;
71858;PMS5003;59713;50.866;4.324;2023-05-10T01:35:28;13;11;
71858;PMS5003;59713;50.866;4.324;2023-05-10T01:36:27;13;11;
71858;PMS5003;59713;50.866;4.324;2023-05-10T01:37:28;13;11;
71858;PMS5003;59713;50.866;4.324;2023-05-10T01:38:29;10;7;
71858;PMS5003;59713;50.866;4.324;2023-05-10T01:39:29;10;7;
71858;PMS5003;59713;50.866;4.324;2023-05-10T01:40:29;10;7;
71858;PMS5003;59713;50.866;4.324;2023-05-10T01:41:28;10;10;
71858;PMS5003;59713;50.866;4.324;2023-05-10T01:42:28;10;10;
71858;PMS5003;59713;50.866;4.324;2023-05-10T01:43:28;10;10;
71858;PMS5003;59713;50.866;4.324;2023-05-10T01:44:28;9;9;
71858;PMS5003;59713;50.866;4.324;2023-05-10T01:45:27;9;9;
71858;PMS5003;59713;50.866;4.324;2023-05-10T01:45:27;9;9;
71858;PMS5003;59713;50.866;4.324;2023-05-10T01:46:27;9;9;
71858;PMS5003;59713;50.866;4.324;2023-05-10T01:47:27;11;10;
71858;PMS5003;59713;50.866;4.324;2023-05-10T01:48:26;11;10;
71858;PMS5003;59713;50.866;4.324;2023-05-10T01:49:31;11;10;
71858;PMS5003;59713;50.866;4.324;2023-05-10T01:50:27;12;9;
71858;PMS5003;59713;50.866;4.324;2023-05-10T01:51:27;12;9;
71858;PMS5003;59713;50.866;4.324;2023-05-10T01:52:27;12;9;
71858;PMS5003;59713;50.866;4.324;2023-05-10T01:53:26;13;11;
71858;PMS5003;59713;50.866;4.324;2023-05-10T01:54:26;13;11;
71858;PMS5003;59713;50.866;4.324;2023-05-10T01:54:26;13;11;
71858;PMS5003;59713;50.866;4.324;2023-05-10T01:55:28;13;11;
71858;PMS5003;59713;50.866;4.324;2023-05-10T01:56:26;13;12;
71858;PMS5003;59713;50.866;4.324;2023-05-10T01:57:27;13;12;
71858;PMS5003;59713;50.866;4.324;2023-05-10T01:58:27;13;12;
71858;PMS5003;59713;50.866;4.324;2023-05-10T01:59:28;14;10;
71858;PMS5003;59713;50.866;4.324;2023-05-10T02:00:26;14;10;
71858;PMS5003;59713;50.866;4.324;2023-05-10T02:01:26;14;10;
71858;PMS5003;59713;50.866;4.324;2023-05-10T02:02:27;12;12;
71858;PMS5003;59713;50.866;4.324;2023-05-10T02:03:26;12;12;
71858;PMS5003;59713;50.866;4.324;2023-05-10T02:03:26;12;12;
71858;PMS5003;59713;50.866;4.324;2023-05-10T02:04:26;12;12;
71858;PMS5003;59713;50.866;4.324;2023-05-10T02:05:27;11;9;
71858;PMS5003;59713;50.866;4.324;2023-05-10T02:06:26;11;9;
71858;PMS5003;59713;50.866;4.324;2023-05-10T02:07:26;11;9;
71858;PMS5003;59713;50.866;4.324;2023-05-10T02:08:26;12;12;
71858;PMS5003;59713;50.866;4.324;2023-05-10T02:09:26;12;12;
71858;PMS5003;59713;50.866;4.324;2023-05-10T02:10:27;12;12;
71858;PMS5003;59713;50.866;4.324;2023-05-10T02:11:26;12;12;
71858;PMS5003;59713;50.866;4.324;2023-05-10T02:12:26;12;12;
71858;PMS5003;59713;50.866;4.324;2023-05-10T02:12:26;12;12;
71858;PMS5003;59713;50.866;4.324;2023-05-10T02:13:26;12;12;
71858;PMS5003;59713;50.866;4.324;2023-05-10T02:14:26;14;11;
71858;PMS5003;59713;50.866;4.324;2023-05-10T02:15:26;14;11;
71858;PMS5003;59713;50.866;4.324;2023-05-10T02:16:26;14;11;
71858;PMS5003;59713;50.866;4.324;2023-05-10T02:17:26;11;11;
71858;PMS5003;59713;50.866;4.324;2023-05-10T02:18:26;11;11;
71858;PMS5003;59713;50.866;4.324;2023-05-10T02:19:26;11;11;
71858;PMS5003;59713;50.866;4.324;2023-05-10T02:20:26;13;10;
71858;PMS5003;59713;50.866;4.324;2023-05-10T02:21:26;13;10;
71858;PMS5003;59713;50.866;4.324;2023-05-10T02:21:26;13;10;
71858;PMS5003;59713;50.866;4.324;2023-05-10T02:22:26;13;10;
71858;PMS5003;59713;50.866;4.324;2023-05-10T02:23:26;14;11;
71858;PMS5003;59713;50.866;4.324;2023-05-10T02:24:26;14;11;
71858;PMS5003;59713;50.866;4.324;2023-05-10T02:25:26;14;11;
71858;PMS5003;59713;50.866;4.324;2023-05-10T02:26:26;11;10;
71858;PMS5003;59713;50.866;4.324;2023-05-10T02:27:27;11;10;
71858;PMS5003;59713;50.866;4.324;2023-05-10T02:28:26;11;10;
71858;PMS5003;59713;50.866;4.324;2023-05-10T02:29:31;15;14;
71858;PMS5003;59713;50.866;4.324;2023-05-10T02:30:26;15;14;
71858;PMS5003;59713;50.866;4.324;2023-05-10T02:30:26;15;14;
71858;PMS5003;59713;50.866;4.324;2023-05-10T02:31:26;15;14;
71858;PMS5003;59713;50.866;4.324;2023-05-10T02:32:26;13;10;
71858;PMS5003;59713;50.866;4.324;2023-05-10T02:33:26;13;10;
71858;PMS5003;59713;50.866;4.324;2023-05-10T02:34:28;13;10;
71858;PMS5003;59713;50.866;4.324;2023-05-10T02:35:26;13;13;
71858;PMS5003;59713;50.866;4.324;2023-05-10T02:36:26;13;13;
71858;PMS5003;59713;50.866;4.324;2023-05-10T02:37:26;13;13;
71858;PMS5003;59713;50.866;4.324;2023-05-10T02:38:26;12;11;
71858;PMS5003;59713;50.866;4.324;2023-05-10T02:39:26;12;11;
71858;PMS5003;59713;50.866;4.324;2023-05-10T02:40:26;12;11;
71858;PMS5003;59713;50.866;4.324;2023-05-10T02:40:26;12;11;
71858;PMS5003;59713;50.866;4.324;2023-05-10T02:41:26;11;9;
71858;PMS5003;59713;50.866;4.324;2023-05-10T02:42:27;11;9;
71858;PMS5003;59713;50.866;4.324;2023-05-10T02:43:26;11;9;
71858;PMS5003;59713;50.866;4.324;2023-05-10T02:44:26;11;10;
71858;PMS5003;59713;50.866;4.324;2023-05-10T02:45:27;11;10;
71858;PMS5003;59713;50.866;4.324;2023-05-10T02:46:26;11;10;
71858;PMS5003;59713;50.866;4.324;2023-05-10T02:47:26;15;13;
71858;PMS5003;59713;50.866;4.324;2023-05-10T02:48:26;15;13;
71858;PMS5003;59713;50.866;4.324;2023-05-10T02:49:26;15;13;
71858;PMS5003;59713;50.866;4.324;2023-05-10T02:49:27;15;13;
71858;PMS5003;59713;50.866;4.324;2023-05-10T02:50:27;11;10;
71858;PMS5003;59713;50.866;4.324;2023-05-10T02:51:28;11;10;
71858;PMS5003;59713;50.866;4.324;2023-05-10T02:52:27;11;10;
71858;PMS5003;59713;50.866;4.324;2023-05-10T02:53:28;9;9;
71858;PMS5003;59713;50.866;4.324;2023-05-10T02:54:27;9;9;
71858;PMS5003;59713;50.866;4.324;2023-05-10T02:55:27;9;9;
71858;PMS5003;59713;50.866;4.324;2023-05-10T02:56:28;10;9;
71858;PMS5003;59713;50.866;4.324;2023-05-10T02:57:27;10;9;
71858;PMS5003;59713;50.866;4.324;2023-05-10T02:58:26;10;9;
71858;PMS5003;59713;50.866;4.324;2023-05-10T02:58:26;10;9;
71858;PMS5003;59713;50.866;4.324;2023-05-10T02:59:26;8;8;
71858;PMS5003;59713;50.866;4.324;2023-05-10T03:00:26;8;8;
71858;PMS5003;59713;50.866;4.324;2023-05-10T03:01:26;8;8;
71858;PMS5003;59713;50.866;4.324;2023-05-10T03:02:26;10;9;
71858;PMS5003;59713;50.866;4.324;2023-05-10T03:03:26;10;9;
71858;PMS5003;59713;50.866;4.324;2023-05-10T03:04:26;10;9;
71858;PMS5003;59713;50.866;4.324;2023-05-10T03:05:26;9;9;
71858;PMS5003;59713;50.866;4.324;2023-05-10T03:06:26;9;9;
71858;PMS5003;59713;50.866;4.324;2023-05-10T03:07:26;9;9;
71858;PMS5003;59713;50.866;4.324;2023-05-10T03:07:26;9;9;
71858;PMS5003;59713;50.866;4.324;2023-05-10T03:08:26;11;11;
71858;PMS5003;59713;50.866;4.324;2023-05-10T03:09:26;11;11;
71858;PMS5003;59713;50.866;4.324;2023-05-10T03:10:27;11;11;
71858;PMS5003;59713;50.866;4.324;2023-05-10T03:11:29;14;10;
71858;PMS5003;59713;50.866;4.324;2023-05-10T03:12:29;14;10;
71858;PMS5003;59713;50.866;4.324;2023-05-10T03:13:28;14;10;
71858;PMS5003;59713;50.866;4.324;2023-05-10T03:14:33;11;10;
71858;PMS5003;59713;50.866;4.324;2023-05-10T03:15:29;11;10;
71858;PMS5003;59713;50.866;4.324;2023-05-10T03:16:27;11;10;
71858;PMS5003;59713;50.866;4.324;2023-05-10T03:16:27;11;10;
71858;PMS5003;59713;50.866;4.324;2023-05-10T03:17:29;11;9;
71858;PMS5003;59713;50.866;4.324;2023-05-10T03:18:28;11;9;
71858;PMS5003;59713;50.866;4.324;2023-05-10T03:19:27;11;9;
71858;PMS5003;59713;50.866;4.324;2023-05-10T03:20:42;12;11;
71858;PMS5003;59713;50.866;4.324;2023-05-10T03:21:28;12;11;
71858;PMS5003;59713;50.866;4.324;2023-05-10T03:22:28;12;11;
71858;PMS5003;59713;50.866;4.324;2023-05-10T03:23:27;13;10;
71858;PMS5003;59713;50.866;4.324;2023-05-10T03:24:27;13;10;
71858;PMS5003;59713;50.866;4.324;2023-05-10T03:25:26;13;10;
71858;PMS5003;59713;50.866;4.324;2023-05-10T03:26:27;12;12;
71858;PMS5003;59713;50.866;4.324;2023-05-10T03:26:27;12;12;
71858;PMS5003;59713;50.866;4.324;2023-05-10T03:27:26;12;12;
71858;PMS5003;59713;50.866;4.324;2023-05-10T03:28:26;12;12;
71858;PMS5003;59713;50.866;4.324;2023-05-10T03:29:26;11;11;
71858;PMS5003;59713;50.866;4.324;2023-05-10T03:30:26;11;11;
71858;PMS5003;59713;50.866;4.324;2023-05-10T03:31:26;11;11;
71858;PMS5003;59713;50.866;4.324;2023-05-10T03:32:26;13;11;
71858;PMS5003;59713;50.866;4.324;2023-05-10T03:33:26;13;11;
71858;PMS5003;59713;50.866;4.324;2023-05-10T03:34:26;13;11;
71858;PMS5003;59713;50.866;4.324;2023-05-10T03:35:26;10;10;
71858;PMS5003;59713;50.866;4.324;2023-05-10T03:35:26;10;10;
71858;PMS5003;59713;50.866;4.324;2023-05-10T03:36:26;10;10;
71858;PMS5003;59713;50.866;4.324;2023-05-10T03:37:26;10;10;
71858;PMS5003;59713;50.866;4.324;2023-05-10T03:38:26;14;11;
71858;PMS5003;59713;50.866;4.324;2023-05-10T03:39:26;14;11;
71858;PMS5003;59713;50.866;4.324;2023-05-10T03:40:26;14;11;
71858;PMS5003;59713;50.866;4.324;2023-05-10T03:41:26;11;9;
71858;PMS5003;59713;50.866;4.324;2023-05-10T03:42:26;11;9;
71858;PMS5003;59713;50.866;4.324;2023-05-10T03:43:26;11;9;
71858;PMS5003;59713;50.866;4.324;2023-05-10T03:44:26;14;11;
71858;PMS5003;59713;50.866;4.324;2023-05-10T03:44:26;14;11;
71858;PMS5003;59713;50.866;4.324;2023-05-10T03:45:26;14;11;
71858;PMS5003;59713;50.866;4.324;2023-05-10T03:46:26;14;11;
71858;PMS5003;59713;50.866;4.324;2023-05-10T03:47:26;15;13;
71858;PMS5003;59713;50.866;4.324;2023-05-10T03:48:26;15;13;
71858;PMS5003;59713;50.866;4.324;2023-05-10T03:49:26;15;13;
71858;PMS5003;59713;50.866;4.324;2023-05-10T03:50:26;17;14;
71858;PMS5003;59713;50.866;4.324;2023-05-10T03:51:26;17;14;
71858;PMS5003;59713;50.866;4.324;2023-05-10T03:52:26;17;14;
71858;PMS5003;59713;50.866;4.324;2023-05-10T03:53:26;17;14;
71858;PMS5003;59713;50.866;4.324;2023-05-10T03:53:26;17;14;
71858;PMS5003;59713;50.866;4.324;2023-05-10T03:54:26;17;14;
71858;PMS5003;59713;50.866;4.324;2023-05-10T03:55:26;17;14;
71858;PMS5003;59713;50.866;4.324;2023-05-10T03:56:26;15;12;
71858;PMS5003;59713;50.866;4.324;2023-05-10T03:57:26;15;12;
71858;PMS5003;59713;50.866;4.324;2023-05-10T03:58:26;15;12;
71858;PMS5003;59713;50.866;4.324;2023-05-10T03:59:26;17;15;
71858;PMS5003;59713;50.866;4.324;2023-05-10T04:00:26;17;15;
71858;PMS5003;59713;50.866;4.324;2023-05-10T04:01:26;17;15;
71858;PMS5003;59713;50.866;4.324;2023-05-10T04:02:26;15;14;
71858;PMS5003;59713;50.866;4.324;2023-05-10T04:02:26;15;14;
71858;PMS5003;59713;50.866;4.324;2023-05-10T04:03:26;15;14;
71858;PMS5003;59713;50.866;4.324;2023-05-10T04:04:26;15;14;
71858;PMS5003;59713;50.866;4.324;2023-05-10T04:05:27;16;15;
71858;PMS5003;59713;50.866;4.324;2023-05-10T04:06:26;16;15;
71858;PMS5003;59713;50.866;4.324;2023-05-10T04:07:26;16;15;
71858;PMS5003;59713;50.866;4.324;2023-05-10T04:08:26;20;18;
71858;PMS5003;59713;50.866;4.324;2023-05-10T04:09:26;20;18;
71858;PMS5003;59713;50.866;4.324;2023-05-10T04:10:26;20;18;
71858;PMS5003;59713;50.866;4.324;2023-05-10T04:11:26;16;14;
71858;PMS5003;59713;50.866;4.324;2023-05-10T04:11:27;16;14;
71858;PMS5003;59713;50.866;4.324;2023-05-10T04:12:27;16;14;
71858;PMS5003;59713;50.866;4.324;2023-05-10T04:13:26;16;14;
71858;PMS5003;59713;50.866;4.324;2023-05-10T04:14:26;12;9;
71858;PMS5003;59713;50.866;4.324;2023-05-10T04:15:27;12;9;
71858;PMS5003;59713;50.866;4.324;2023-05-10T04:16:26;12;9;
71858;PMS5003;59713;50.866;4.324;2023-05-10T04:17:26;17;14;
71858;PMS5003;59713;50.866;4.324;2023-05-10T04:18:27;17;14;
71858;PMS5003;59713;50.866;4.324;2023-05-10T04:19:28;17;14;
71858;PMS5003;59713;50.866;4.324;2023-05-10T04:20:27;14;13;
71858;PMS5003;59713;50.866;4.324;2023-05-10T04:20:27;14;13;
71858;PMS5003;59713;50.866;4.324;2023-05-10T04:21:26;14;13;
71858;PMS5003;59713;50.866;4.324;2023-05-10T04:22:26;14;13;
71858;PMS5003;59713;50.866;4.324;2023-05-10T04:23:27;16;16;
71858;PMS5003;59713;50.866;4.324;2023-05-10T04:24:27;16;16;
71858;PMS5003;59713;50.866;4.324;2023-05-10T04:25:27;16;16;
71858;PMS5003;59713;50.866;4.324;2023-05-10T04:26:28;22;16;
71858;PMS5003;59713;50.866;4.324;2023-05-10T04:27:27;22;16;
71858;PMS5003;59713;50.866;4.324;2023-05-10T04:28:27;22;16;
71858;PMS5003;59713;50.866;4.324;2023-05-10T04:29:27;16;16;
71858;PMS5003;59713;50.866;4.324;2023-05-10T04:29:27;16;16;
71858;PMS5003;59713;50.866;4.324;2023-05-10T04:30:27;16;16;
71858;PMS5003;59713;50.866;4.324;2023-05-10T04:31:27;16;16;
71858;PMS5003;59713;50.866;4.324;2023-05-10T04:32:27;17;14;
71858;PMS5003;59713;50.866;4.324;2023-05-10T04:33:27;17;14;
71858;PMS5003;59713;50.866;4.324;2023-05-10T04:34:26;17;14;
71858;PMS5003;59713;50.866;4.324;2023-05-10T04:35:27;16;16;
71858;PMS5003;59713;50.866;4.324;2023-05-10T04:36:27;16;16;
71858;PMS5003;59713;50.866;4.324;2023-05-10T04:37:27;16;16;
71858;PMS5003;59713;50.866;4.324;2023-05-10T04:38:27;23;19;
71858;PMS5003;59713;50.866;4.324;2023-05-10T04:38:27;23;19;
71858;PMS5003;59713;50.866;4.324;2023-05-10T04:39:27;23;19;
71858;PMS5003;59713;50.866;4.324;2023-05-10T04:40:27;23;19;
71858;PMS5003;59713;50.866;4.324;2023-05-10T04:41:27;17;15;
71858;PMS5003;59713;50.866;4.324;2023-05-10T04:42:27;17;15;
71858;PMS5003;59713;50.866;4.324;2023-05-10T04:43:27;17;15;
71858;PMS5003;59713;50.866;4.324;2023-05-10T04:44:27;15;15;
71858;PMS5003;59713;50.866;4.324;2023-05-10T04:45:27;15;15;
71858;PMS5003;59713;50.866;4.324;2023-05-10T04:46:27;15;15;
71858;PMS5003;59713;50.866;4.324;2023-05-10T04:47:27;28;26;
71858;PMS5003;59713;50.866;4.324;2023-05-10T04:47:27;28;26;
71858;PMS5003;59713;50.866;4.324;2023-05-10T04:48:27;28;26;
71858;PMS5003;59713;50.866;4.324;2023-05-10T04:49:27;28;26;
71858;PMS5003;59713;50.866;4.324;2023-05-10T04:50:27;22;18;
71858;PMS5003;59713;50.866;4.324;2023-05-10T04:51:27;22;18;
71858;PMS5003;59713;50.866;4.324;2023-05-10T04:52:27;22;18;
71858;PMS5003;59713;50.866;4.324;2023-05-10T04:53:27;19;17;
71858;PMS5003;59713;50.866;4.324;2023-05-10T04:54:27;19;17;
71858;PMS5003;59713;50.866;4.324;2023-05-10T04:55:27;19;17;
71858;PMS5003;59713;50.866;4.324;2023-05-10T04:56:27;17;16;
71858;PMS5003;59713;50.866;4.324;2023-05-10T04:57:27;17;16;
71858;PMS5003;59713;50.866;4.324;2023-05-10T04:57:27;17;16;
71858;PMS5003;59713;50.866;4.324;2023-05-10T04:58:27;17;16;
71858;PMS5003;59713;50.866;4.324;2023-05-10T04:59:27;18;17;
71858;PMS5003;59713;50.866;4.324;2023-05-10T05:00:27;18;17;
71858;PMS5003;59713;50.866;4.324;2023-05-10T05:01:27;18;17;
71858;PMS5003;59713;50.866;4.324;2023-05-10T05:02:27;18;16;
71858;PMS5003;59713;50.866;4.324;2023-05-10T05:03:27;18;16;
71858;PMS5003;59713;50.866;4.324;2023-05-10T05:04:27;18;16;
71858;PMS5003;59713;50.866;4.324;2023-05-10T05:05:27;20;16;
71858;PMS5003;59713;50.866;4.324;2023-05-10T05:06:27;20;16;
71858;PMS5003;59713;50.866;4.324;2023-05-10T05:06:27;20;16;
71858;PMS5003;59713;50.866;4.324;2023-05-10T05:07:27;20;16;
71858;PMS5003;59713;50.866;4.324;2023-05-10T05:08:27;22;16;
71858;PMS5003;59713;50.866;4.324;2023-05-10T05:09:27;22;16;
71858;PMS5003;59713;50.866;4.324;2023-05-10T05:10:27;22;16;
71858;PMS5003;59713;50.866;4.324;2023-05-10T05:11:27;17;17;
71858;PMS5003;59713;50.866;4.324;2023-05-10T05:12:27;17;17;
71858;PMS5003;59713;50.866;4.324;2023-05-10T05:13:27;17;17;
71858;PMS5003;59713;50.866;4.324;2023-05-10T05:14:27;18;15;
71858;PMS5003;59713;50.866;4.324;2023-05-10T05:15:27;18;15;
71858;PMS5003;59713;50.866;4.324;2023-05-10T05:15:27;18;15;
71858;PMS5003;59713;50.866;4.324;2023-05-10T05:16:27;18;15;
71858;PMS5003;59713;50.866;4.324;2023-05-10T05:17:27;17;15;
71858;PMS5003;59713;50.866;4.324;2023-05-10T05:18:27;17;15;
71858;PMS5003;59713;50.866;4.324;2023-05-10T05:19:27;17;15;
71858;PMS5003;59713;50.866;4.324;2023-05-10T05:20:27;19;17;
71858;PMS5003;59713;50.866;4.324;2023-05-10T05:21:27;19;17;
71858;PMS5003;59713;50.866;4.324;2023-05-10T05:22:27;19;17;
71858;PMS5003;59713;50.866;4.324;2023-05-10T05:23:27;22;21;
71858;PMS5003;59713;50.866;4.324;2023-05-10T05:24:27;22;21;
71858;PMS5003;59713;50.866;4.324;2023-05-10T05:25:27;22;21;
71858;PMS5003;59713;50.866;4.324;2023-05-10T05:25:27;22;21;
71858;PMS5003;59713;50.866;4.324;2023-05-10T05:26:27;24;21;
71858;PMS5003;59713;50.866;4.324;2023-05-10T05:27:27;24;21;
71858;PMS5003;59713;50.866;4.324;2023-05-10T05:28:27;24;21;
71858;PMS5003;59713;50.866;4.324;2023-05-10T05:29:27;23;22;
71858;PMS5003;59713;50.866;4.324;2023-05-10T05:30:27;23;22;
71858;PMS5003;59713;50.866;4.324;2023-05-10T05:31:28;23;22;
71858;PMS5003;59713;50.866;4.324;2023-05-10T05:32:27;18;17;
71858;PMS5003;59713;50.866;4.324;2023-05-10T05:33:27;18;17;
71858;PMS5003;59713;50.866;4.324;2023-05-10T05:34:27;18;17;
71858;PMS5003;59713;50.866;4.324;2023-05-10T05:34:27;18;17;
71858;PMS5003;59713;50.866;4.324;2023-05-10T05:35:27;16;15;
71858;PMS5003;59713;50.866;4.324;2023-05-10T05:36:27;16;15;
71858;PMS5003;59713;50.866;4.324;2023-05-10T05:37:27;16;15;
71858;PMS5003;59713;50.866;4.324;2023-05-10T05:38:27;16;13;
71858;PMS5003;59713;50.866;4.324;2023-05-10T05:39:27;16;13;
71858;PMS5003;59713;50.866;4.324;2023-05-10T05:40:27;16;13;
71858;PMS5003;59713;50.866;4.324;2023-05-10T05:41:27;13;11;
71858;PMS5003;59713;50.866;4.324;2023-05-10T05:42:27;13;11;
71858;PMS5003;59713;50.866;4.324;2023-05-10T05:43:28;13;11;
71858;PMS5003;59713;50.866;4.324;2023-05-10T05:43:28;13;11;
71858;PMS5003;59713;50.866;4.324;2023-05-10T05:44:27;11;10;
71858;PMS5003;59713;50.866;4.324;2023-05-10T05:45:27;11;10;
71858;PMS5003;59713;50.866;4.324;2023-05-10T05:46:27;11;10;
71858;PMS5003;59713;50.866;4.324;2023-05-10T05:47:27;9;9;
71858;PMS5003;59713;50.866;4.324;2023-05-10T05:48:27;9;9;
71858;PMS5003;59713;50.866;4.324;2023-05-10T05:49:27;9;9;
71858;PMS5003;59713;50.866;4.324;2023-05-10T05:50:27;9;9;
71858;PMS5003;59713;50.866;4.324;2023-05-10T05:51:27;9;9;
71858;PMS5003;59713;50.866;4.324;2023-05-10T05:52:27;9;9;
71858;PMS5003;59713;50.866;4.324;2023-05-10T05:52:27;9;9;
71858;PMS5003;59713;50.866;4.324;2023-05-10T05:53:27;10;9;
71858;PMS5003;59713;50.866;4.324;2023-05-10T05:54:27;10;9;
71858;PMS5003;59713;50.866;4.324;2023-05-10T05:55:27;10;9;
71858;PMS5003;59713;50.866;4.324;2023-05-10T05:56:27;14;11;
71858;PMS5003;59713;50.866;4.324;2023-05-10T05:57:27;14;11;
71858;PMS5003;59713;50.866;4.324;2023-05-10T05:58:27;14;11;
71858;PMS5003;59713;50.866;4.324;2023-05-10T05:59:27;16;12;
71858;PMS5003;59713;50.866;4.324;2023-05-10T06:00:27;16;12;
71858;PMS5003;59713;50.866;4.324;2023-05-10T06:01:27;16;12;
71858;PMS5003;59713;50.866;4.324;2023-05-10T06:01:27;16;12;
71858;PMS5003;59713;50.866;4.324;2023-05-10T06:02:27;12;11;